Time;durP1;ratioP1;P1;durP2;ratioP2;P2;SDS_P1;SDS_P2;PMS_P1;PMS_P2;Temp;Humidity;BMP_temperature;BMP_pressure;BME280_temperature;BME280_humidity;BME280_pressure;Samples;Min_cycle;Max_cycle;Signal;HPM_P1;HPM_P2
2022/11/16 00:01:13;;;;;;;3.17;2.15;;;;;;;11.17;100.00;100038.72;6175643;28;20058;-73
2022/11/16 00:04:16;;;;;;;4.65;2.40;;;;;;;11.18;100.00;100032.56;6175414;28;20043;-74
2022/11/16 00:07:17;;;;;;;5.90;2.53;;;;;;;11.16;100.00;100031.78;6176027;28;20053;-73
2022/11/16 00:10:19;;;;;;;5.00;2.17;;;;;;;11.16;100.00;100027.38;6175254;28;20059;-73
2022/11/16 00:13:20;;;;;;;2.42;1.80;;;;;;;11.16;100.00;100024.75;6175458;28;20426;-72
2022/11/16 00:16:22;;;;;;;2.30;1.60;;;;;;;11.16;100.00;100021.28;6175320;28;20047;-73
2022/11/16 00:19:26;;;;;;;4.07;2.45;;;;;;;11.11;100.00;100016.31;6175400;28;20409;-73
2022/11/16 00:22:27;;;;;;;4.35;2.22;;;;;;;11.06;100.00;100018.44;6174999;28;20051;-73
2022/11/16 00:25:28;;;;;;;5.65;2.45;;;;;;;10.98;100.00;100019.88;6174838;28;20526;-73
2022/11/16 00:28:30;;;;;;;5.53;2.55;;;;;;;10.97;100.00;100010.31;6175330;28;20054;-73
2022/11/16 00:31:31;;;;;;;4.85;2.25;;;;;;;10.97;100.00;100012.94;6174750;28;20494;-73
2022/11/16 00:34:34;;;;;;;6.63;2.38;;;;;;;10.93;100.00;100010.50;6174810;28;20054;-73
2022/11/16 00:37:35;;;;;;;11.63;2.80;;;;;;;10.97;100.00;100010.31;6175055;28;20055;-72
2022/11/16 00:40:37;;;;;;;3.15;1.95;;;;;;;10.98;100.00;100015.47;6174779;28;20525;-73
2022/11/16 00:43:39;;;;;;;3.50;2.25;;;;;;;10.96;100.00;100009.47;6173946;28;20054;-73
2022/11/16 00:46:40;;;;;;;4.10;2.42;;;;;;;10.95;100.00;100005.16;6174497;28;20550;-73
2022/11/16 00:49:43;;;;;;;8.32;2.40;;;;;;;10.95;100.00;100010.44;6174676;28;20055;-73
2022/11/16 00:52:45;;;;;;;6.85;2.70;;;;;;;10.97;100.00;100003.28;6174547;28;20058;-73
2022/11/16 00:55:48;;;;;;;7.03;2.83;;;;;;;10.98;100.00;100004.94;6174395;28;20057;-73
2022/11/16 00:58:49;;;;;;;5.65;2.58;;;;;;;10.96;100.00;100004.22;6174705;28;20051;-73
2022/11/16 01:01:50;;;;;;;4.05;2.33;;;;;;;10.90;100.00;99994.09;6174160;28;20490;-73
2022/11/16 01:04:53;;;;;;;7.53;2.33;;;;;;;10.90;100.00;99994.97;6174140;28;20058;-73
2022/11/16 01:07:56;;;;;;;6.75;2.78;;;;;;;10.84;100.00;99989.25;6174458;28;20067;-73
2022/11/16 01:12:07;;;;;;;7.40;2.28;;;;;;;10.83;100.00;99977.91;6173859;28;20141;-73
2022/11/16 01:14:20;;;;;;;7.40;3.05;;;;;;;10.80;100.00;99978.09;6173818;28;20058;-73
2022/11/16 01:17:22;;;;;;;11.43;3.47;;;;;;;10.80;100.00;99975.47;6174319;28;20054;-73
2022/11/16 01:20:26;;;;;;;7.00;2.92;;;;;;;10.80;100.00;99978.09;6173937;28;20054;-72
2022/11/16 01:23:28;;;;;;;4.07;2.60;;;;;;;10.79;100.00;99976.41;6174365;28;20046;-73
2022/11/16 01:26:29;;;;;;;4.75;2.63;;;;;;;10.75;100.00;99972.31;6173849;28;20055;-73
2022/11/16 01:29:32;;;;;;;5.10;2.72;;;;;;;10.79;100.00;99976.41;6173821;28;20146;-73
2022/11/16 01:32:34;;;;;;;8.70;2.95;;;;;;;10.78;100.00;99968.66;6173615;28;20051;-73
2022/11/16 01:35:37;;;;;;;5.95;2.45;;;;;;;10.78;100.00;99966.03;6173401;28;20051;-72
2022/11/16 01:38:39;;;;;;;7.03;2.80;;;;;;;10.77;100.00;99961.72;6173818;28;20077;-73
2022/11/16 01:41:41;;;;;;;7.43;3.35;;;;;;;10.74;100.00;99967.16;6173317;28;20054;-73
2022/11/16 01:45:01;;;;;;;4.72;2.90;;;;;;;10.72;100.00;99962.03;6173797;28;20825;-73
2022/11/16 01:48:03;;;;;;;5.20;2.90;;;;;;;10.76;100.00;99954.75;6173805;28;20055;-73
2022/11/16 01:51:06;;;;;;;7.45;2.78;;;;;;;10.74;100.00;99941.72;6183158;28;20495;-73
2022/11/16 01:54:11;;;;;;;6.53;2.92;;;;;;;10.71;100.00;99943.72;6197863;28;20046;-73
2022/11/16 01:57:30;;;;;;;7.65;3.13;;;;;;;10.68;100.00;99942.16;6201265;28;20069;-73
2022/11/16 02:00:32;;;;;;;3.97;2.43;;;;;;;10.65;100.00;99942.34;6190268;28;20061;-73
2022/11/16 02:03:37;;;;;;;5.07;2.80;;;;;;;10.66;100.00;99941.38;6191334;28;20066;-72
2022/11/16 02:06:56;;;;;;;7.15;2.58;;;;;;;10.66;100.00;99931.72;6189232;28;20419;-73
2022/11/16 02:10:10;;;;;;;5.63;2.72;;;;;;;10.59;100.00;99927.84;6181143;28;20418;-72
2022/11/16 02:13:23;;;;;;;4.93;2.35;;;;;;;10.52;100.00;99931.78;6181351;28;20046;-72
2022/11/16 02:16:35;;;;;;;5.80;3.20;;;;;;;10.54;100.00;99929.09;6181118;28;20054;-72
2022/11/16 02:19:59;;;;;;;7.55;3.17;;;;;;;10.53;100.00;99922.13;6181585;28;20051;-73
2022/11/16 02:23:22;;;;;;;5.40;2.60;;;;;;;10.49;100.00;99925.91;6181255;28;20054;-72
2022/11/16 02:26:47;;;;;;;5.32;2.47;;;;;;;10.41;100.00;99921.16;6181333;28;20050;-73
2022/11/16 02:29:52;;;;;;;6.55;2.67;;;;;;;10.41;100.00;99921.16;6180925;28;20521;-73
2022/11/16 02:32:59;;;;;;;6.90;3.00;;;;;;;10.38;100.00;99918.72;6181057;28;20043;-73
2022/11/16 02:36:03;;;;;;;5.95;3.10;;;;;;;10.34;100.00;99925.97;6180862;28;20050;-73
2022/11/16 02:39:10;;;;;;;10.05;3.58;;;;;;;10.30;100.00;99940.22;6181296;28;20475;-73
2022/11/16 02:42:16;;;;;;;6.10;2.95;;;;;;;10.28;100.00;99928.16;6180797;28;20047;-73
2022/11/16 02:45:23;;;;;;;5.18;2.53;;;;;;;10.26;100.00;99937.91;6180875;28;20050;-73
2022/11/16 02:48:29;;;;;;;6.95;2.70;;;;;;;10.17;100.00;99936.69;6181145;28;20062;-73
2022/11/16 02:51:32;;;;;;;5.38;2.95;;;;;;;10.12;100.00;99928.28;6180763;28;20054;-73
2022/11/16 02:54:33;;;;;;;4.47;2.15;;;;;;;10.10;100.00;99923.13;6180579;28;20491;-73
2022/11/16 02:57:43;;;;;;;6.43;3.13;;;;;;;10.08;100.00;99934.66;6181074;28;20051;-73
2022/11/16 03:00:52;;;;;;;5.72;2.95;;;;;;;10.02;100.00;99930.66;6180735;28;20062;-73
2022/11/16 03:04:01;;;;;;;9.05;3.97;;;;;;;9.96;100.00;99936.31;6180748;28;20054;-73
2022/11/16 03:07:05;;;;;;;8.20;3.22;;;;;;;9.91;100.00;99928.72;6177798;28;20159;-73
2022/11/16 03:10:09;;;;;;;3.85;2.47;;;;;;;9.87;100.00;99929.00;6176869;28;20058;-73
2022/11/16 03:13:12;;;;;;;8.40;2.85;;;;;;;9.84;100.00;99939.69;6176939;28;20061;-73
2022/11/16 03:16:20;;;;;;;6.43;2.95;;;;;;;9.81;100.00;99932.88;6176702;28;20050;-74
2022/11/16 03:19:28;;;;;;;6.97;2.70;;;;;;;9.65;100.00;99938.22;6176962;28;20057;-74
2022/11/16 03:22:35;;;;;;;6.33;3.80;;;;;;;9.64;100.00;99939.19;6176728;28;20062;-73
2022/11/16 03:25:41;;;;;;;4.90;2.90;;;;;;;9.63;100.00;99936.66;6176459;28;20321;-74
2022/11/16 03:28:50;;;;;;;6.80;2.90;;;;;;;9.52;100.00;99931.22;6177007;28;20057;-73
2022/11/16 03:31:59;;;;;;;6.57;3.17;;;;;;;9.52;100.00;99944.34;6176345;28;20059;-74
2022/11/16 03:35:06;;;;;;;6.70;3.35;;;;;;;9.49;100.00;99939.25;6176368;28;20047;-73
2022/11/16 03:38:10;;;;;;;7.28;3.85;;;;;;;9.48;100.00;99942.84;6176502;28;20055;-74
2022/11/16 03:41:14;;;;;;;6.22;3.13;;;;;;;9.47;100.00;99947.25;6176338;28;20139;-73
2022/11/16 03:44:19;;;;;;;11.02;4.57;;;;;;;9.40;100.00;99944.16;6175507;28;20055;-73
2022/11/16 03:47:21;;;;;;;7.57;3.05;;;;;;;9.40;100.00;99946.78;6176567;28;20058;-75
2022/11/16 03:50:23;;;;;;;8.60;3.72;;;;;;;9.33;100.00;99939.38;6175862;28;20058;-74
2022/11/16 03:53:24;;;;;;;10.45;3.72;;;;;;;9.25;100.00;99936.38;6176040;28;20050;-74
2022/11/16 03:56:26;;;;;;;7.32;3.97;;;;;;;9.23;100.00;99933.03;6175249;28;20050;-75
2022/11/16 03:59:27;;;;;;;8.15;4.00;;;;;;;9.22;100.00;99931.31;6174933;28;20047;-73
2022/11/16 04:02:30;;;;;;;9.70;4.38;;;;;;;9.17;100.00;99928.13;6175695;28;20050;-74
2022/11/16 04:25:46;;;;;;;10.75;5.03;;;;;;;8.97;100.00;99924.94;6174915;28;20129;-74
2022/11/16 04:28:47;;;;;;;9.63;4.90;;;;;;;8.92;100.00;99923.53;6175358;28;20426;-75
2022/11/16 04:38:42;;;;;;;6.03;3.85;;;;;;;8.92;100.00;99916.50;6175628;28;20125;-74
2022/11/16 04:48:22;;;;;;;11.55;5.03;;;;;;;8.82;100.00;99920.63;6175110;28;20047;-73
2022/11/16 04:51:24;;;;;;;17.52;6.50;;;;;;;8.80;100.00;99918.06;6174422;28;20054;-74
2022/11/16 04:54:26;;;;;;;14.98;6.30;;;;;;;8.73;100.00;99911.53;6174081;28;20438;-74
2022/11/16 04:57:27;;;;;;;16.35;5.97;;;;;;;8.78;100.00;99921.72;6174623;28;20053;-74
2022/11/16 05:00:29;;;;;;;13.23;6.07;;;;;;;8.73;100.00;99913.31;6174723;28;20050;-73
2022/11/16 05:03:31;;;;;;;17.42;6.55;;;;;;;8.79;100.00;99926.03;6174544;28;20046;-74
2022/11/16 05:06:34;;;;;;;20.35;6.50;;;;;;;8.80;100.00;99925.94;6174261;28;20058;-73
2022/11/16 05:09:38;;;;;;;17.05;7.20;;;;;;;8.74;100.00;99909.75;6174420;28;20050;-74
2022/11/16 05:12:40;;;;;;;13.75;6.60;;;;;;;8.70;100.00;99908.25;6174156;28;20046;-73
2022/11/16 05:15:44;;;;;;;14.43;7.20;;;;;;;8.72;100.00;99909.84;6173824;28;20057;-75
2022/11/16 05:20:59;;;;;;;11.45;6.45;;;;;;;8.66;100.00;99893.63;6174720;28;20046;-74
2022/11/16 05:22:08;;;;;;;18.10;8.18;;;;;;;8.64;100.00;99896.34;6173320;28;20086;-73
2022/11/16 05:25:10;;;;;;;17.05;7.07;;;;;;;8.63;100.00;99903.38;6173806;28;20491;-73
2022/11/16 05:28:12;;;;;;;14.82;7.13;;;;;;;8.61;100.00;99891.28;6174770;28;20055;-74
2022/11/16 05:31:13;;;;;;;15.13;7.13;;;;;;;8.60;100.00;99905.31;6196795;28;20399;-75
2022/11/16 05:34:15;;;;;;;15.40;6.85;;;;;;;8.58;100.00;99897.56;6197168;28;20050;-73
2022/11/16 05:37:19;;;;;;;23.13;7.15;;;;;;;8.60;100.00;99890.44;6197454;28;20050;-74
2022/11/16 05:40:21;;;;;;;19.17;7.65;;;;;;;8.58;100.00;99899.31;6196415;28;20062;-75
2022/11/16 05:43:22;;;;;;;20.58;7.90;;;;;;;8.60;100.00;99898.31;6196132;28;20054;-75
2022/11/16 05:46:24;;;;;;;23.55;7.60;;;;;;;8.55;100.00;99889.88;6195948;28;20046;-75
2022/11/16 05:49:26;;;;;;;15.13;7.47;;;;;;;8.53;100.00;99891.72;6196167;28;20073;-74
2022/11/16 05:52:29;;;;;;;21.75;7.82;;;;;;;8.50;100.00;99889.31;6195888;28;20046;-74
2022/11/16 05:55:30;;;;;;;19.20;7.15;;;;;;;8.48;100.00;99893.78;6196576;28;20125;-75
2022/11/16 05:58:32;;;;;;;18.33;7.68;;;;;;;8.45;100.00;99895.72;6195884;28;20050;-74
2022/11/16 06:01:33;;;;;;;22.50;7.78;;;;;;;8.47;100.00;99905.19;6196005;28;20050;-75
2022/11/16 06:04:35;;;;;;;20.08;7.75;;;;;;;8.48;100.00;99901.63;6197271;28;20441;-76
2022/11/16 06:07:37;;;;;;;16.65;8.07;;;;;;;8.42;100.00;99904.63;6196307;28;20050;-75
2022/11/16 06:10:39;;;;;;;18.95;7.93;;;;;;;8.42;100.00;99901.16;6195358;28;20042;-75
2022/11/16 06:13:41;;;;;;;16.95;7.82;;;;;;;8.39;100.00;99902.16;6196007;28;20518;-75
2022/11/16 06:16:42;;;;;;;25.60;7.95;;;;;;;8.35;100.00;99893.59;6196410;28;20048;-75
2022/11/16 06:19:43;;;;;;;18.85;7.93;;;;;;;8.36;100.00;99897.97;6197432;28;20425;-74
2022/11/16 06:22:46;;;;;;;21.05;8.02;;;;;;;8.35;100.00;99892.78;6197209;28;20058;-75
2022/11/16 06:25:53;;;;;;;23.80;9.20;;;;;;;8.32;100.00;99891.19;6196958;28;20406;-75
2022/11/16 06:28:54;;;;;;;14.85;7.05;;;;;;;8.28;100.00;99889.69;6197465;28;20046;-75
2022/11/16 06:31:56;;;;;;;22.38;8.23;;;;;;;8.24;100.00;99895.19;6196811;28;20065;-75
2022/11/16 06:34:57;;;;;;;22.20;8.07;;;;;;;8.27;100.00;99906.31;6195702;28;20494;-76
2022/11/16 06:38:00;;;;;;;16.58;7.85;;;;;;;8.22;100.00;99907.50;6196715;28;20050;-74
2022/11/16 06:41:01;;;;;;;15.38;7.50;;;;;;;8.14;100.00;99905.34;6198816;28;20050;-75
2022/11/16 06:44:03;;;;;;;15.85;7.63;;;;;;;8.14;100.00;99907.94;6192981;28;20417;-75
2022/11/16 06:47:04;;;;;;;20.45;7.75;;;;;;;8.15;100.00;99907.00;6201694;28;20050;-75
2022/11/16 06:50:07;;;;;;;21.02;7.47;;;;;;;8.09;100.00;99904.75;6201322;28;20054;-75
2022/11/16 06:53:09;;;;;;;17.75;7.80;;;;;;;8.11;100.00;99901.09;6201655;28;20057;-74
2022/11/16 06:56:13;;;;;;;19.50;7.10;;;;;;;8.09;100.00;99908.22;6201263;28;20053;-75
2022/11/16 06:59:15;;;;;;;17.90;8.35;;;;;;;8.04;100.00;99904.13;6201538;28;20058;-75
2022/11/16 07:02:16;;;;;;;20.38;7.82;;;;;;;8.04;100.00;99914.59;6201151;28;20050;-75
2022/11/16 07:05:18;;;;;;;19.75;8.73;;;;;;;8.04;100.00;99905.00;6201199;28;20054;-75
2022/11/16 07:08:20;;;;;;;20.17;8.98;;;;;;;8.00;100.00;99910.50;6201391;28;20050;-75
2022/11/16 07:11:22;;;;;;;22.80;7.85;;;;;;;7.96;100.00;99909.00;6201056;28;20510;-75
2022/11/16 07:14:23;;;;;;;24.98;8.45;;;;;;;7.98;100.00;99915.81;6200648;28;20050;-74
2022/11/16 07:17:25;;;;;;;19.85;6.75;;;;;;;7.95;100.00;99917.75;6201308;28;20081;-76
2022/11/16 07:20:26;;;;;;;17.10;7.72;;;;;;;7.96;100.00;99916.84;6200566;28;20407;-74
2022/11/16 07:23:31;;;;;;;17.55;7.78;;;;;;;8.02;100.00;99917.31;6200756;28;20047;-74
2022/11/16 07:26:33;;;;;;;18.90;8.60;;;;;;;7.94;100.00;99921.28;6200032;28;20065;-74
2022/11/16 07:29:34;;;;;;;18.67;7.90;;;;;;;7.88;100.00;99918.09;6200319;28;20054;-74
2022/11/16 07:32:38;;;;;;;19.60;7.70;;;;;;;7.86;100.00;99935.66;6200322;28;20069;-75
2022/11/16 07:35:40;;;;;;;21.08;8.38;;;;;;;7.93;100.00;99944.00;6200087;28;20502;-75
2022/11/16 07:38:42;;;;;;;23.08;8.82;;;;;;;7.96;100.00;99946.44;6201047;28;20065;-73
2022/11/16 07:41:45;;;;;;;23.65;8.57;;;;;;;7.96;100.00;99956.91;6200114;28;20057;-74
2022/11/16 07:44:47;;;;;;;21.75;8.02;;;;;;;7.92;100.00;99965.84;6200434;28;20046;-74
2022/11/16 07:47:51;;;;;;;22.70;8.57;;;;;;;7.95;100.00;99967.44;6200607;28;20057;-74
2022/11/16 07:50:52;;;;;;;22.38;8.57;;;;;;;7.99;100.00;99984.66;6200119;28;20093;-75
2022/11/16 07:53:55;;;;;;;20.65;9.88;;;;;;;7.99;100.00;99992.50;6199429;28;20076;-74
2022/11/16 07:56:57;;;;;;;19.55;8.82;;;;;;;8.01;100.00;99988.06;6200124;28;20526;-74
2022/11/16 07:59:58;;;;;;;24.45;8.82;;;;;;;8.01;100.00;99994.13;6199919;28;20046;-76
2022/11/16 08:02:59;;;;;;;16.80;8.05;;;;;;;7.98;100.00;99990.84;6199902;28;20058;-74
2022/11/16 08:06:03;;;;;;;22.05;9.38;;;;;;;7.96;100.00;99990.09;6199510;28;20042;-75
2022/11/16 08:09:06;;;;;;;21.40;8.95;;;;;;;7.92;100.00;99988.56;6191747;28;20042;-74
2022/11/16 08:12:07;;;;;;;20.98;9.70;;;;;;;7.83;100.00;99993.34;6179405;28;20050;-74
2022/11/16 08:15:10;;;;;;;22.65;8.52;;;;;;;7.84;100.00;100005.50;6187091;28;20494;-75
2022/11/16 08:18:11;;;;;;;28.50;8.27;;;;;;;7.86;100.00;100003.66;6188134;28;20054;-74
2022/11/16 08:21:15;;;;;;;19.85;8.15;;;;;;;7.84;100.00;100002.03;6197174;28;20049;-75
2022/11/16 08:24:18;;;;;;;18.27;8.65;;;;;;;7.81;100.00;99999.59;6197510;28;20045;-74
2022/11/16 08:27:20;;;;;;;19.63;8.57;;;;;;;7.83;100.00;99997.75;6197481;28;20061;-73
2022/11/16 08:30:21;;;;;;;19.55;9.23;;;;;;;7.86;100.00;99997.59;6197172;28;20403;-75
2022/11/16 08:33:23;;;;;;;18.92;8.68;;;;;;;7.83;100.00;99993.34;6197160;28;20502;-74
2022/11/16 08:36:24;;;;;;;22.27;9.23;;;;;;;7.74;100.00;99996.47;6197073;28;20054;-75
2022/11/16 08:39:27;;;;;;;21.00;9.10;;;;;;;7.76;100.00;99994.59;6199268;28;20053;-74
2022/11/16 08:42:29;;;;;;;16.80;7.38;;;;;;;7.76;100.00;100001.59;6198506;28;20050;-74
2022/11/16 08:45:32;;;;;;;19.70;9.65;;;;;;;7.76;100.00;100014.69;6198670;28;20050;-74
2022/11/16 08:48:34;;;;;;;21.23;9.13;;;;;;;7.73;100.00;100015.72;6175444;28;20055;-75
2022/11/16 08:51:35;;;;;;;19.52;8.27;;;;;;;7.70;100.00;100015.03;6186104;28;20050;-73
2022/11/16 08:54:40;;;;;;;19.45;9.23;;;;;;;7.74;100.00;100021.78;6198436;28;20174;-74
2022/11/16 08:57:41;;;;;;;21.80;8.30;;;;;;;7.73;100.00;100012.25;6198602;28;20418;-73
2022/11/16 09:00:43;;;;;;;23.13;9.18;;;;;;;7.78;100.00;100025.94;6198375;28;20047;-74
2022/11/16 09:03:44;;;;;;;28.45;9.52;;;;;;;7.71;100.00;100030.63;6196990;28;20039;-74
2022/11/16 09:06:46;;;;;;;19.08;8.23;;;;;;;7.68;100.00;100028.19;6198176;28;20645;-74
2022/11/16 09:09:49;;;;;;;23.77;9.80;;;;;;;7.66;100.00;100024.78;6197803;28;20081;-75
2022/11/16 09:12:50;;;;;;;18.63;9.13;;;;;;;7.70;100.00;100022.88;6198084;28;20046;-75
2022/11/16 09:15:56;;;;;;;20.83;8.88;;;;;;;7.68;100.00;100022.97;6197986;28;20056;-73
2022/11/16 09:18:57;;;;;;;23.30;9.65;;;;;;;7.65;100.00;100030.13;6198432;28;20057;-74
2022/11/16 09:21:59;;;;;;;24.17;9.48;;;;;;;7.62;100.00;100026.72;6198018;28;20070;-75
2022/11/16 09:25:01;;;;;;;21.05;9.65;;;;;;;7.60;100.00;100031.19;6197709;28;20053;-74
2022/11/16 09:28:03;;;;;;;27.65;10.80;;;;;;;7.60;100.00;100030.34;6198160;28;20056;-75
2022/11/16 09:31:06;;;;;;;26.65;10.73;;;;;;;7.55;100.00;100032.38;6197867;28;20050;-75
2022/11/16 09:34:08;;;;;;;23.40;11.90;;;;;;;7.44;100.00;100029.47;6197668;28;20421;-75
2022/11/16 09:37:09;;;;;;;24.83;10.88;;;;;;;7.45;100.00;100036.38;6198018;28;20049;-74
2022/11/16 09:40:12;;;;;;;22.58;10.18;;;;;;;7.50;100.00;100044.84;6197552;28;20058;-73
2022/11/16 09:43:28;;;;;;;22.40;10.48;;;;;;;7.37;100.00;100037.63;6197632;28;20526;-74
2022/11/16 09:46:34;;;;;;;22.75;10.60;;;;;;;7.40;100.00;100047.06;6197674;28;20054;-74
2022/11/16 09:49:41;;;;;;;25.80;11.35;;;;;;;7.41;100.00;100042.72;6197895;28;20391;-75
2022/11/16 09:52:46;;;;;;;28.20;11.57;;;;;;;7.37;100.00;100042.84;6197892;28;20061;-74
2022/11/16 09:55:51;;;;;;;28.05;10.38;;;;;;;7.34;100.00;100050.00;6197188;28;20583;-76
2022/11/16 09:59:00;;;;;;;31.80;11.27;;;;;;;7.37;100.00;100039.41;6197802;28;20058;-73
2022/11/16 10:02:12;;;;;;;27.08;10.77;;;;;;;7.41;100.00;100040.94;6194261;28;20053;-74
2022/11/16 10:05:20;;;;;;;24.73;10.60;;;;;;;7.33;100.00;100045.72;6196709;28;20050;-73
2022/11/16 10:08:27;;;;;;;21.63;9.43;;;;;;;7.36;100.00;100035.94;6194990;28;20046;-74
2022/11/16 10:11:44;;;;;;;26.83;11.30;;;;;;;7.34;100.00;100034.31;6193757;28;20046;-74
2022/11/16 10:15:00;;;;;;;25.05;11.27;;;;;;;7.31;100.00;100032.72;6194713;28;20516;-74
2022/11/16 10:18:24;;;;;;;25.80;10.63;;;;;;;7.32;100.00;100034.41;6199467;28;20046;-73
2022/11/16 10:21:47;;;;;;;25.70;10.68;;;;;;;7.37;100.00;100035.00;6200024;28;20050;-74
2022/11/16 10:24:57;;;;;;;31.30;10.32;;;;;;;7.38;100.00;100034.09;6200471;28;20057;-75
2022/11/16 10:28:21;;;;;;;23.40;11.30;;;;;;;7.32;100.00;100031.78;6199823;28;20042;-73
2022/11/16 10:31:37;;;;;;;25.88;11.25;;;;;;;7.17;100.00;100037.78;6200190;28;20049;-74
2022/11/16 10:34:45;;;;;;;27.67;11.63;;;;;;;7.19;100.00;100035.13;6199082;28;20046;-75
2022/11/16 10:37:49;;;;;;;30.05;10.70;;;;;;;7.20;100.00;100039.41;6202234;28;20046;-74
2022/11/16 10:40:55;;;;;;;24.35;10.90;;;;;;;7.17;100.00;100034.31;6201491;28;20057;-73
2022/11/16 10:43:59;;;;;;;26.35;10.73;;;;;;;7.23;100.00;100034.03;6201726;28;20083;-73
2022/11/16 10:47:04;;;;;;;25.58;9.55;;;;;;;7.28;100.00;100043.31;6201646;28;20057;-74
2022/11/16 10:50:31;;;;;;;26.40;10.45;;;;;;;7.14;100.00;100034.50;6201595;28;20046;-75
2022/11/16 10:53:35;;;;;;;22.77;10.02;;;;;;;7.14;100.00;100034.50;6200952;28;20519;-74
2022/11/16 10:56:38;;;;;;;29.83;10.82;;;;;;;7.12;100.00;100040.63;6201380;28;20042;-73
2022/11/16 10:59:44;;;;;;;25.60;10.48;;;;;;;7.11;100.00;100032.88;6201333;28;20108;-77
2022/11/16 11:02:48;;;;;;;26.55;11.80;;;;;;;7.19;100.00;100029.88;6201336;28;20047;-75
2022/11/16 11:05:53;;;;;;;26.35;10.27;;;;;;;7.20;100.00;100026.34;6200766;28;20054;-75
2022/11/16 11:08:54;;;;;;;26.45;11.05;;;;;;;7.23;100.00;100024.44;6201405;28;20054;-74
2022/11/16 11:15:26;;;;;;;24.48;10.35;;;;;;;7.22;100.00;100034.94;6200805;28;20054;-73
2022/11/16 11:18:28;;;;;;;23.45;10.02;;;;;;;7.09;100.00;100032.97;6200784;28;20584;-73
2022/11/16 11:21:30;;;;;;;26.42;10.75;;;;;;;7.12;100.00;100034.56;6200711;28;20057;-74
2022/11/16 11:24:32;;;;;;;23.10;10.55;;;;;;;7.09;100.00;100030.34;6200406;28;20046;-76
2022/11/16 11:27:35;;;;;;;21.80;10.07;;;;;;;7.20;100.00;100018.50;6200149;28;20046;-74
2022/11/16 11:30:39;;;;;;;19.90;10.27;;;;;;;7.28;100.00;100021.56;6200714;28;20046;-73
2022/11/16 11:33:49;;;;;;;24.23;10.77;;;;;;;7.27;100.00;100017.28;6200187;28;20486;-75
2022/11/16 11:36:53;;;;;;;24.08;10.02;;;;;;;7.26;100.00;100018.19;6200799;28;20442;-72
2022/11/16 11:40:24;;;;;;;24.48;10.95;;;;;;;7.23;100.00;100016.59;6200191;28;20050;-75
2022/11/16 11:43:27;;;;;;;22.52;10.10;;;;;;;7.21;100.00;100010.56;6176847;28;20429;-75
2022/11/16 11:46:33;;;;;;;18.25;8.70;;;;;;;7.30;100.00;100012.72;6200032;28;20422;-74
2022/11/16 11:49:38;;;;;;;23.23;9.82;;;;;;;7.29;100.00;100010.19;6200123;28;20057;-75
2022/11/16 11:52:45;;;;;;;21.25;8.52;;;;;;;7.37;100.00;100010.66;6200348;28;20050;-75
2022/11/16 11:55:48;;;;;;;18.20;8.85;;;;;;;7.32;100.00;100005.66;6199627;28;20422;-74
2022/11/16 11:58:51;;;;;;;27.92;9.68;;;;;;;7.33;100.00;100007.34;6200372;28;20453;-75
2022/11/16 12:02:06;;;;;;;16.73;7.95;;;;;;;7.41;100.00;100013.94;6199495;28;20061;-74
2022/11/16 12:05:33;;;;;;;22.10;10.27;;;;;;;7.38;100.00;100010.56;6199884;28;20050;-73
2022/11/16 12:09:00;;;;;;;19.20;9.90;;;;;;;7.30;100.00;100009.25;6199696;28;20050;-75
2022/11/16 12:12:16;;;;;;;17.55;8.52;;;;;;;7.34;100.00;100018.63;6199355;28;20060;-74
2022/11/16 12:15:40;;;;;;;21.67;8.93;;;;;;;7.35;100.00;100007.25;6199237;28;20539;-74
2022/11/16 12:18:57;;;;;;;20.63;8.63;;;;;;;7.42;100.00;100013.88;6199413;28;20050;-73
2022/11/16 12:22:10;;;;;;;20.42;8.63;;;;;;;7.36;100.00;100009.81;6199126;28;20565;-74
2022/11/16 12:25:23;;;;;;;18.88;7.80;;;;;;;7.34;100.00;100016.03;6198756;28;20049;-74
2022/11/16 12:28:41;;;;;;;18.92;8.15;;;;;;;7.26;100.00;100012.94;6199575;28;20046;-75
2022/11/16 12:32:25;;;;;;;18.35;7.82;;;;;;;7.35;100.00;100021.16;6198576;28;20081;-74
2022/11/16 12:35:51;;;;;;;19.75;8.18;;;;;;;7.38;100.00;100015.78;6193046;28;20047;-74
2022/11/16 12:39:04;;;;;;;17.23;7.78;;;;;;;7.32;100.00;100018.72;6192878;28;20055;-73
2022/11/16 12:42:27;;;;;;;20.30;8.80;;;;;;;7.43;100.00;100018.16;6198075;28;20057;-74
2022/11/16 12:45:46;;;;;;;19.40;7.95;;;;;;;7.40;100.00;100020.09;6175973;28;20522;-79
2022/11/16 12:49:23;;;;;;;21.58;8.98;;;;;;;7.37;100.00;100018.50;6175721;28;20061;-76
2022/11/16 12:52:46;;;;;;;14.57;6.93;;;;;;;7.42;100.00;100013.03;6196970;28;20088;-78
2022/11/16 12:55:57;;;;;;;22.40;7.60;;;;;;;7.36;100.00;100006.34;6198510;28;20614;-75
2022/11/16 12:59:17;;;;;;;18.15;8.23;;;;;;;7.33;100.00;100012.56;6198950;28;20054;-74
2022/11/16 13:02:34;;;;;;;24.13;8.18;;;;;;;7.24;100.00;100017.44;6198239;28;20050;-73
2022/11/16 13:05:47;;;;;;;17.58;7.95;;;;;;;7.35;100.00;100017.72;6198079;28;20442;-76
2022/11/16 13:09:01;;;;;;;22.10;7.65;;;;;;;7.30;100.00;100017.09;6198576;28;20054;-76
2022/11/16 13:12:06;;;;;;;17.70;7.75;;;;;;;7.33;100.00;100012.56;6192980;28;20069;-73
2022/11/16 13:15:17;;;;;;;15.07;7.68;;;;;;;7.27;100.00;100015.50;6198058;28;20050;-74
2022/11/16 13:18:22;;;;;;;18.98;8.73;;;;;;;7.29;100.00;100013.66;6198490;28;20076;-73
2022/11/16 13:21:39;;;;;;;18.95;8.18;;;;;;;7.34;100.00;100009.03;6197591;28;20054;-74
2022/11/16 13:24:54;;;;;;;16.23;8.18;;;;;;;7.31;100.00;100010.94;6198093;28;20544;-74
2022/11/16 13:28:00;;;;;;;14.85;7.40;;;;;;;7.30;100.00;100006.66;6198152;28;20054;-74
2022/11/16 13:31:08;;;;;;;18.55;8.27;;;;;;;7.27;100.00;99999.84;6197909;28;20046;-74
2022/11/16 13:34:17;;;;;;;16.08;8.55;;;;;;;7.20;100.00;100001.06;6197307;28;20050;-74
2022/11/16 13:37:47;;;;;;;16.85;7.03;;;;;;;7.15;100.00;99999.59;6198041;28;20042;-74
2022/11/16 13:40:50;;;;;;;19.58;7.30;;;;;;;7.22;100.00;99998.34;6162982;28;20058;-73
2022/11/16 13:43:51;;;;;;;16.45;6.95;;;;;;;7.22;100.00;99993.13;6197193;28;20058;-71
2022/11/16 13:46:58;;;;;;;15.00;7.72;;;;;;;7.16;100.00;99991.69;6197768;28;20046;-72
2022/11/16 13:50:02;;;;;;;18.98;7.22;;;;;;;7.17;100.00;99990.75;6197008;28;20153;-72
2022/11/16 13:53:06;;;;;;;17.15;7.93;;;;;;;7.12;100.00;99977.91;6197901;28;20069;-72
2022/11/16 13:56:09;;;;;;;19.60;7.78;;;;;;;7.14;100.00;99985.69;6197268;28;20047;-71
2022/11/16 13:59:15;;;;;;;14.48;7.15;;;;;;;7.10;100.00;99990.22;6197835;28;20061;-73
2022/11/16 14:02:32;;;;;;;13.40;6.43;;;;;;;7.18;100.00;99986.41;6197345;28;20076;-73
2022/11/16 14:05:40;;;;;;;15.65;6.60;;;;;;;7.14;100.00;99984.88;6197129;28;20423;-72
2022/11/16 14:08:50;;;;;;;14.27;6.10;;;;;;;7.04;100.00;99982.72;6197607;28;20076;-72
2022/11/16 14:11:53;;;;;;;13.57;6.50;;;;;;;7.07;100.00;99986.94;6197083;28;20421;-73
2022/11/16 14:15:04;;;;;;;13.30;6.03;;;;;;;7.08;100.00;99978.16;6196860;28;20436;-72
2022/11/16 14:18:32;;;;;;;13.63;6.72;;;;;;;7.03;100.00;99988.00;6193830;28;20050;-72
2022/11/16 14:21:45;;;;;;;15.80;7.55;;;;;;;7.06;100.00;99982.63;6167687;28;20082;-74
2022/11/16 14:24:55;;;;;;;15.82;6.93;;;;;;;7.04;100.00;99989.69;6173267;28;20074;-75
2022/11/16 14:28:18;;;;;;;15.40;6.22;;;;;;;7.07;100.00;99987.78;6173141;28;20051;-75
2022/11/16 14:31:24;;;;;;;12.30;5.20;;;;;;;7.17;100.00;99993.38;6172924;28;20430;-72
2022/11/16 14:34:30;;;;;;;16.85;6.13;;;;;;;7.12;100.00;99987.53;6172520;28;20054;-72
2022/11/16 14:37:35;;;;;;;14.68;6.50;;;;;;;7.07;100.00;99979.09;6173395;28;20050;-71
2022/11/16 14:40:46;;;;;;;14.38;6.45;;;;;;;7.06;100.00;99978.25;6173112;28;20058;-74
2022/11/16 14:43:52;;;;;;;14.68;5.30;;;;;;;7.02;100.00;99981.94;6172813;28;20141;-71
2022/11/16 14:46:54;;;;;;;15.00;6.32;;;;;;;7.01;100.00;99992.47;6173010;28;20400;-75
2022/11/16 14:49:56;;;;;;;11.02;5.00;;;;;;;7.07;100.00;99992.16;6188323;28;20069;-71
2022/11/16 14:53:01;;;;;;;11.05;5.68;;;;;;;7.05;100.00;100005.31;6190829;28;20414;-72
2022/11/16 14:56:09;;;;;;;16.58;5.82;;;;;;;7.04;100.00;99998.41;6195177;28;20073;-72
2022/11/16 14:59:16;;;;;;;11.02;5.03;;;;;;;7.07;100.00;99997.38;6196870;28;20050;-72